Time;durP1;ratioP1;P1;durP2;ratioP2;P2;SDS_P1;SDS_P2;PMS_P1;PMS_P2;Temp;Humidity;BMP_temperature;BMP_pressure;BME280_temperature;BME280_humidity;BME280_pressure;Samples;Min_cycle;Max_cycle;Signal;HPM_P1;HPM_P2
2021/06/16 00:01:51;;;;;;;8.80;3.50;;;;;;;17.85;55.51;100556.38;4448991;32;20046;-77
2021/06/16 00:04:17;;;;;;;14.90;3.53;;;;;;;17.94;55.28;100563.22;4447541;32;20073;-77
2021/06/16 00:06:43;;;;;;;10.98;3.20;;;;;;;18.00;55.13;100562.03;4451519;32;20202;-75
2021/06/16 00:09:08;;;;;;;11.38;3.67;;;;;;;18.04;54.74;100550.44;4452750;32;20029;-77
2021/06/16 00:11:35;;;;;;;15.65;3.28;;;;;;;18.04;54.74;100548.34;4453015;32;20097;-77
2021/06/16 00:14:02;;;;;;;12.48;4.47;;;;;;;18.12;54.57;100540.97;4450125;32;20041;-74
2021/06/16 00:16:28;;;;;;;14.90;4.10;;;;;;;18.19;54.69;100537.72;4447209;32;20092;-75
2021/06/16 00:18:54;;;;;;;12.70;4.40;;;;;;;18.18;54.80;100527.63;4451243;32;20053;-77
2021/06/16 00:21:20;;;;;;;13.02;4.22;;;;;;;18.28;54.63;100545.37;4448035;32;20041;-79
2021/06/16 00:23:47;;;;;;;12.80;4.72;;;;;;;18.33;54.22;100534.03;4448451;32;20100;-75
2021/06/16 00:26:13;;;;;;;10.90;4.30;;;;;;;18.37;53.94;100526.09;4448658;32;20401;-78
2021/06/16 00:28:38;;;;;;;13.13;3.90;;;;;;;18.45;53.94;100515.06;4450295;32;20066;-76
2021/06/16 00:31:04;;;;;;;8.68;3.72;;;;;;;18.44;53.75;100524.91;4449555;32;20081;-77
2021/06/16 00:33:30;;;;;;;8.40;3.80;;;;;;;18.52;53.62;100509.72;4451510;32;20059;-76
2021/06/16 00:35:57;;;;;;;11.10;4.00;;;;;;;18.56;53.32;100501.72;4453508;32;20085;-75
2021/06/16 00:38:23;;;;;;;10.75;3.90;;;;;;;18.63;52.90;100498.47;4450442;32;20548;-75
2021/06/16 00:40:50;;;;;;;11.95;3.78;;;;;;;18.61;52.86;100503.88;4451207;32;20462;-76
2021/06/16 00:43:17;;;;;;;12.15;3.75;;;;;;;18.61;52.98;100500.22;4448950;32;20141;-77
2021/06/16 00:45:42;;;;;;;12.00;3.70;;;;;;;18.69;52.80;100495.69;4450665;32;20393;-77
2021/06/16 00:48:08;;;;;;;13.15;4.10;;;;;;;18.69;52.75;100492.81;4449859;32;20111;-75
2021/06/16 00:50:38;;;;;;;12.13;3.65;;;;;;;18.66;53.09;100499.53;4451467;32;20103;-75
2021/06/16 00:53:05;;;;;;;9.23;3.80;;;;;;;18.75;52.91;100496.53;4436974;32;20076;-74
2021/06/16 00:55:31;;;;;;;16.15;3.65;;;;;;;18.79;52.75;100491.37;4447373;32;20052;-76
2021/06/16 00:57:58;;;;;;;10.45;3.90;;;;;;;18.78;52.75;100495.53;4449386;32;20429;-75
2021/06/16 01:00:28;;;;;;;11.48;3.50;;;;;;;18.84;52.62;100491.44;4450139;32;20037;-76
2021/06/16 01:03:05;;;;;;;10.35;4.35;;;;;;;18.88;52.51;100494.09;4449605;32;20063;-76
2021/06/16 01:05:41;;;;;;;11.48;3.80;;;;;;;18.78;52.73;100489.84;4451021;32;20081;-76
2021/06/16 01:08:08;;;;;;;13.82;3.78;;;;;;;18.72;52.89;100486.88;4451001;32;20480;-76
2021/06/16 01:10:40;;;;;;;8.40;3.37;;;;;;;18.77;52.71;100483.34;4451929;32;20099;-75
2021/06/16 01:13:22;;;;;;;11.43;3.70;;;;;;;18.79;52.87;100482.84;4449315;32;20115;-75
2021/06/16 01:18:26;;;;;;;8.32;3.30;;;;;;;18.89;52.79;100481.37;4437681;32;850925;-77
2021/06/16 01:20:55;;;;;;;9.23;3.47;;;;;;;18.79;52.97;100479.97;4450039;32;20041;-76
2021/06/16 01:28:55;;;;;;;9.27;3.83;;;;;;;19.38;51.43;100469.72;4443651;31;690666;-74
2021/06/16 01:31:22;;;;;;;8.77;3.42;;;;;;;19.38;51.43;100469.72;4452527;32;20060;-75
2021/06/16 01:33:50;;;;;;;12.65;3.47;;;;;;;18.90;52.23;100468.72;4451921;32;20106;-78
2021/06/16 01:36:16;;;;;;;8.65;3.00;;;;;;;18.93;51.82;100474.16;4455842;32;20090;-74
2021/06/16 01:38:44;;;;;;;9.55;3.00;;;;;;;18.95;51.55;100463.06;4455395;32;20100;-74
2021/06/16 01:41:13;;;;;;;9.02;3.12;;;;;;;18.97;51.57;100465.41;4454474;32;20060;-76
2021/06/16 01:43:41;;;;;;;8.77;2.95;;;;;;;19.00;51.36;100465.19;4455464;32;20067;-77
2021/06/16 01:46:08;;;;;;;10.75;3.12;;;;;;;19.02;51.12;100461.84;4455457;32;20032;-76
2021/06/16 01:48:34;;;;;;;13.80;3.08;;;;;;;19.05;50.63;100458.75;4450177;32;20058;-76
2021/06/16 01:51:01;;;;;;;7.43;2.80;;;;;;;19.12;50.32;100457.53;4454991;32;20089;-76
2021/06/16 01:53:28;;;;;;;8.88;2.65;;;;;;;19.13;50.22;100462.72;4454192;32;20045;-79
2021/06/16 01:55:54;;;;;;;8.43;3.83;;;;;;;19.20;49.71;100453.69;4453120;32;20072;-77
2021/06/16 01:58:21;;;;;;;5.87;2.92;;;;;;;19.26;50.62;100456.59;4450117;32;20093;-78
2021/06/16 02:00:50;;;;;;;7.30;2.62;;;;;;;19.21;49.21;100455.25;4451968;32;20028;-77
2021/06/16 02:03:16;;;;;;;8.45;2.33;;;;;;;19.31;48.82;100450.19;4439789;32;20099;-78
2021/06/16 02:05:42;;;;;;;10.90;2.33;;;;;;;19.33;48.60;100441.94;4440703;32;20037;-76
2021/06/16 02:08:13;;;;;;;7.32;2.03;;;;;;;19.37;48.07;100451.81;4438432;32;20091;-75
2021/06/16 02:10:44;;;;;;;12.95;2.80;;;;;;;19.44;47.81;100444.84;4441464;32;21159;-76
2021/06/16 02:13:11;;;;;;;5.25;2.00;;;;;;;19.49;47.46;100436.31;4437574;32;20096;-79
2021/06/16 02:15:59;;;;;;;5.87;2.28;;;;;;;19.48;47.54;100439.69;4437210;32;20045;-77
2021/06/16 02:18:33;;;;;;;7.70;2.03;;;;;;;19.45;47.57;100437.84;4438109;32;20099;-75
2021/06/16 02:21:01;;;;;;;7.55;2.10;;;;;;;19.50;47.54;100428.56;4438658;32;20417;-75
2021/06/16 02:23:28;;;;;;;6.40;2.37;;;;;;;19.50;47.60;100423.66;4437806;32;20096;-79
2021/06/16 02:25:54;;;;;;;5.70;2.58;;;;;;;19.52;47.62;100423.91;4437620;32;20100;-78
2021/06/16 02:28:21;;;;;;;7.78;2.20;;;;;;;19.45;47.88;100415.81;4439155;32;20068;-75
2021/06/16 02:30:47;;;;;;;13.32;2.67;;;;;;;19.35;48.22;100420.16;4439507;32;20036;-75
2021/06/16 02:33:13;;;;;;;7.97;2.42;;;;;;;19.31;48.36;100404.56;4438307;32;20021;-78
2021/06/16 02:35:39;;;;;;;6.40;2.45;;;;;;;19.22;48.55;100410.41;4438331;32;20081;-76
2021/06/16 02:38:12;;;;;;;5.30;2.40;;;;;;;19.21;48.25;100411.69;4438396;32;20060;-78
2021/06/16 02:40:41;;;;;;;6.32;2.37;;;;;;;19.22;48.37;100407.56;4428109;32;20694;-77
2021/06/16 02:43:07;;;;;;;6.82;1.98;;;;;;;19.24;48.32;100410.69;4429176;32;20037;-76
2021/06/16 02:45:35;;;;;;;10.80;2.53;;;;;;;19.25;48.01;100404.47;4428526;32;20097;-76
2021/06/16 02:48:02;;;;;;;12.65;2.60;;;;;;;19.22;48.22;100401.84;4427692;32;20053;-75
2021/06/16 02:50:30;;;;;;;9.07;2.35;;;;;;;19.37;47.88;100405.38;4428599;32;20080;-75
2021/06/16 02:53:01;;;;;;;6.50;2.17;;;;;;;19.33;47.94;100402.75;4428101;32;20048;-76
2021/06/16 02:55:28;;;;;;;10.43;2.72;;;;;;;19.35;47.88;100397.31;4425797;32;20053;-75
2021/06/16 02:57:55;;;;;;;7.65;1.98;;;;;;;19.39;47.76;100399.94;4430348;32;20053;-76
2021/06/16 03:00:23;;;;;;;7.97;2.25;;;;;;;19.41;47.90;100388.78;4425921;32;20073;-76
2021/06/16 03:02:50;;;;;;;6.72;2.10;;;;;;;19.38;47.90;100392.66;4425398;32;20077;-77
2021/06/16 03:05:22;;;;;;;6.07;2.08;;;;;;;19.37;47.90;100389.03;4428991;32;20042;-76
2021/06/16 03:07:50;;;;;;;6.45;2.30;;;;;;;19.41;47.76;100380.22;4428688;32;20446;-76
2021/06/16 03:10:20;;;;;;;7.00;2.55;;;;;;;19.42;47.78;100374.03;4427394;32;20047;-76
2021/06/16 03:12:50;;;;;;;6.65;1.92;;;;;;;19.43;47.76;100372.72;4426044;32;20085;-75
2021/06/16 03:15:20;;;;;;;8.57;1.98;;;;;;;19.42;47.83;100373.25;4428467;32;20106;-75
2021/06/16 03:17:47;;;;;;;9.02;1.98;;;;;;;19.42;47.70;100373.25;4427378;32;20084;-77
2021/06/16 03:20:17;;;;;;;9.68;2.20;;;;;;;19.36;47.77;100370.34;4424491;32;20086;-76
2021/06/16 03:22:44;;;;;;;4.87;2.10;;;;;;;19.42;47.62;100371.16;4426964;32;20074;-76
2021/06/16 03:25:12;;;;;;;8.32;2.12;;;;;;;19.44;47.50;100368.59;4427786;32;20029;-77
2021/06/16 03:27:38;;;;;;;6.65;2.00;;;;;;;19.39;47.59;100366.47;4427108;32;20072;-77
2021/06/16 03:30:06;;;;;;;8.32;2.25;;;;;;;19.49;47.48;100367.84;4420687;32;20033;-74
2021/06/16 03:32:34;;;;;;;6.12;2.35;;;;;;;19.37;47.85;100363.38;4425134;32;20101;-74
2021/06/16 03:35:01;;;;;;;10.23;2.05;;;;;;;19.24;48.23;100371.50;4425996;32;20089;-75
2021/06/16 03:37:27;;;;;;;5.03;1.80;;;;;;;19.07;48.64;100364.12;4425645;32;20432;-78
2021/06/16 03:39:54;;;;;;;4.82;2.03;;;;;;;19.00;48.85;100365.38;4428329;32;20104;-77
2021/06/16 03:42:21;;;;;;;12.23;2.30;;;;;;;18.93;49.20;100362.19;4425345;32;20030;-76
2021/06/16 03:44:48;;;;;;;8.90;2.12;;;;;;;18.81;49.40;100363.38;4429522;32;20076;-75
2021/06/16 03:47:18;;;;;;;5.22;2.25;;;;;;;18.72;49.47;100358.63;4424206;32;20085;-75
2021/06/16 03:49:46;;;;;;;5.22;1.98;;;;;;;18.72;49.61;100360.69;4427807;32;20115;-78
2021/06/16 03:52:15;;;;;;;8.73;2.00;;;;;;;18.69;49.77;100356.81;4424698;32;20064;-76
2021/06/16 03:54:42;;;;;;;4.45;1.80;;;;;;;18.62;50.03;100362.16;4427758;32;20448;-76
2021/06/16 03:57:08;;;;;;;8.82;1.90;;;;;;;18.63;50.22;100355.16;4430173;32;20094;-77
2021/06/16 03:59:36;;;;;;;9.68;2.53;;;;;;;18.63;50.29;100355.97;4428280;32;20052;-76
2021/06/16 04:02:02;;;;;;;13.73;2.28;;;;;;;18.59;50.30;100355.37;4425294;32;20044;-78
2021/06/16 04:04:28;;;;;;;6.53;2.28;;;;;;;18.58;50.40;100344.47;4427714;32;20042;-76
2021/06/16 04:06:55;;;;;;;7.50;2.53;;;;;;;18.57;50.56;100348.63;4428512;32;20079;-77
2021/06/16 04:09:22;;;;;;;10.23;2.05;;;;;;;18.59;50.48;100343.22;4426204;32;20029;-78
2021/06/16 04:11:47;;;;;;;6.03;2.20;;;;;;;18.65;50.30;100349.75;4422093;32;20408;-75
2021/06/16 04:14:13;;;;;;;8.50;2.45;;;;;;;18.68;49.98;100358.06;4426313;32;20145;-76
2021/06/16 04:16:42;;;;;;;10.25;2.30;;;;;;;18.82;50.33;100353.53;4425882;32;20067;-75
2021/06/16 04:19:08;;;;;;;7.87;2.40;;;;;;;18.87;49.73;100352.81;4427746;32;20370;-76
2021/06/16 04:21:34;;;;;;;15.13;2.72;;;;;;;18.82;49.45;100342.13;4423548;32;20041;-76
2021/06/16 04:23:59;;;;;;;8.27;2.40;;;;;;;18.95;50.13;100351.06;4417678;32;20206;-76
2021/06/16 04:26:25;;;;;;;7.75;2.60;;;;;;;19.04;49.61;100348.00;4428142;32;20072;-76
2021/06/16 04:28:51;;;;;;;7.82;1.85;;;;;;;19.14;49.19;100358.72;4424238;32;20030;-76
2021/06/16 04:31:16;;;;;;;7.68;2.10;;;;;;;19.26;48.78;100349.00;4425495;32;20069;-75
2021/06/16 04:33:43;;;;;;;4.47;2.10;;;;;;;19.42;48.66;100341.87;4425863;32;20104;-77
2021/06/16 04:36:09;;;;;;;6.32;1.70;;;;;;;19.51;48.35;100353.06;4426866;32;20046;-75
2021/06/16 04:38:35;;;;;;;6.40;2.05;;;;;;;19.62;47.89;100353.91;4426591;32;20064;-76
2021/06/16 04:41:02;;;;;;;14.55;3.00;;;;;;;19.71;47.64;100338.66;4421131;32;20106;-78
2021/06/16 04:43:28;;;;;;;5.25;2.28;;;;;;;19.86;47.38;100344.16;4426773;32;20033;-78
2021/06/16 04:45:54;;;;;;;9.20;2.00;;;;;;;19.85;47.38;100334.81;4426670;32;20176;-76
2021/06/16 04:48:19;;;;;;;6.28;1.98;;;;;;;19.90;47.08;100328.34;4426920;32;20038;-76
2021/06/16 04:50:45;;;;;;;5.97;2.30;;;;;;;19.91;46.86;100321.34;4423710;32;20073;-75
2021/06/16 04:53:11;;;;;;;7.87;2.60;;;;;;;19.89;46.91;100329.66;4426976;32;20077;-75
2021/06/16 04:55:37;;;;;;;6.18;1.80;;;;;;;19.89;47.06;100321.09;4425737;32;20110;-76
2021/06/16 04:58:04;;;;;;;7.15;2.20;;;;;;;19.95;47.04;100323.97;4425851;32;20863;-75
2021/06/16 05:00:29;;;;;;;7.57;2.65;;;;;;;20.10;46.67;100321.69;4426699;32;20423;-76
2021/06/16 05:02:57;;;;;;;7.20;2.00;;;;;;;20.09;46.62;100320.91;4423512;32;20094;-75
2021/06/16 05:05:24;;;;;;;4.65;1.77;;;;;;;20.22;46.22;100315.50;4424285;32;20104;-76
2021/06/16 05:07:49;;;;;;;9.05;2.35;;;;;;;20.48;45.63;100309.59;4425640;32;20477;-77
2021/06/16 05:10:15;;;;;;;7.70;2.22;;;;;;;20.53;45.70;100311.69;4424495;32;20136;-76
2021/06/16 05:12:43;;;;;;;5.78;1.95;;;;;;;20.54;46.00;100310.38;4425163;32;20499;-76
2021/06/16 05:15:10;;;;;;;8.90;2.33;;;;;;;20.55;46.14;100317.66;4424074;32;20030;-75
2021/06/16 05:17:38;;;;;;;8.82;2.58;;;;;;;20.60;46.28;100308.31;4428726;32;20037;-77
2021/06/16 05:20:06;;;;;;;5.25;2.33;;;;;;;20.67;46.29;100299.22;4425403;32;20074;-76
2021/06/16 05:22:33;;;;;;;12.35;2.20;;;;;;;20.85;46.09;100308.06;4426343;32;20077;-77
2021/06/16 05:25:01;;;;;;;10.05;2.00;;;;;;;20.97;45.88;100309.66;4425521;32;20100;-76
2021/06/16 05:27:27;;;;;;;6.15;2.17;;;;;;;20.98;46.10;100316.94;4421586;32;20198;-75
2021/06/16 05:29:54;;;;;;;10.30;2.92;;;;;;;21.01;45.16;100315.91;4425422;32;20048;-76
2021/06/16 05:32:20;;;;;;;8.75;2.30;;;;;;;21.13;44.87;100306.00;4425272;32;20109;-77
2021/06/16 05:34:46;;;;;;;8.05;3.33;;;;;;;21.19;44.80;100300.28;4427003;32;20105;-77
2021/06/16 05:37:13;;;;;;;9.38;2.90;;;;;;;21.31;44.64;100307.53;4424664;32;20033;-77
2021/06/16 05:39:39;;;;;;;9.93;2.53;;;;;;;21.26;44.83;100294.03;4425348;32;20081;-78
2021/06/16 05:42:05;;;;;;;6.87;2.05;;;;;;;21.31;44.74;100296.88;4425082;32;20073;-75
2021/06/16 05:44:32;;;;;;;8.75;2.12;;;;;;;21.19;45.09;100292.47;4427060;32;20605;-75
2021/06/16 05:46:58;;;;;;;6.25;2.72;;;;;;;21.01;45.48;100303.66;4427421;32;20104;-75
2021/06/16 05:49:25;;;;;;;6.03;2.25;;;;;;;20.93;45.78;100300.53;4423774;32;20094;-77
2021/06/16 05:51:51;;;;;;;8.35;2.50;;;;;;;20.81;46.34;100301.84;4425443;32;20104;-77
2021/06/16 05:54:17;;;;;;;9.52;2.97;;;;;;;20.79;46.50;100304.44;4424167;32;20095;-76
2021/06/16 05:56:43;;;;;;;7.82;2.17;;;;;;;20.82;46.54;100303.41;4422685;32;20045;-77
2021/06/16 05:59:08;;;;;;;6.87;2.05;;;;;;;20.72;46.85;100289.88;4424660;32;20068;-79
2021/06/16 06:01:35;;;;;;;6.75;2.15;;;;;;;20.84;46.53;100294.28;4422523;32;20133;-76
2021/06/16 06:04:03;;;;;;;7.12;2.30;;;;;;;20.66;46.52;100284.16;4426269;32;20046;-74
2021/06/16 06:06:30;;;;;;;7.78;2.10;;;;;;;20.70;46.87;100278.94;4422849;32;20029;-75
2021/06/16 06:08:55;;;;;;;8.65;2.55;;;;;;;20.77;46.83;100280.53;4426129;32;20099;-77
2021/06/16 06:11:21;;;;;;;8.25;1.98;;;;;;;20.80;47.02;100285.97;4421763;32;20030;-78
2021/06/16 06:13:47;;;;;;;9.68;2.55;;;;;;;20.95;46.68;100280.78;4424707;32;20082;-77
2021/06/16 06:16:13;;;;;;;7.97;2.50;;;;;;;20.92;46.97;100281.81;4428812;32;20069;-75
2021/06/16 06:18:39;;;;;;;8.77;2.55;;;;;;;20.98;47.02;100276.09;4424003;32;20079;-76
2021/06/16 06:21:04;;;;;;;6.78;2.28;;;;;;;21.03;47.23;100278.19;4427947;32;20068;-76
2021/06/16 06:23:31;;;;;;;8.85;2.12;;;;;;;21.07;47.22;100270.91;4422922;32;20093;-77
2021/06/16 06:25:57;;;;;;;8.40;2.50;;;;;;;20.99;47.55;100278.44;4425832;32;20083;-77
2021/06/16 06:28:23;;;;;;;8.98;2.72;;;;;;;21.05;47.38;100284.19;4428451;32;20088;-76
2021/06/16 06:30:49;;;;;;;7.93;2.80;;;;;;;20.99;47.58;100278.44;4426709;32;20115;-77
2021/06/16 06:33:15;;;;;;;5.82;2.20;;;;;;;21.14;47.56;100278.94;4429303;32;20077;-77
2021/06/16 06:35:41;;;;;;;8.93;2.83;;;;;;;21.23;47.36;100281.53;4418853;32;20491;-79
2021/06/16 06:38:07;;;;;;;10.77;2.62;;;;;;;21.33;47.04;100287.78;4420730;32;20026;-75
2021/06/16 06:40:33;;;;;;;14.00;2.92;;;;;;;21.39;47.20;100286.44;4411940;32;20049;-76
2021/06/16 06:42:59;;;;;;;8.13;2.20;;;;;;;21.46;47.00;100291.66;4416159;32;20111;-75
2021/06/16 06:45:25;;;;;;;6.87;2.35;;;;;;;21.48;46.63;100291.87;4420117;32;21221;-75
2021/06/16 06:47:51;;;;;;;9.50;2.20;;;;;;;21.25;46.76;100290.38;4414491;32;20046;-77
2021/06/16 06:50:17;;;;;;;11.95;2.65;;;;;;;21.25;46.99;100284.66;4421269;32;20070;-76
2021/06/16 06:52:47;;;;;;;10.73;2.47;;;;;;;21.42;46.36;100291.13;4412532;32;20038;-76
2021/06/16 06:55:13;;;;;;;10.05;2.40;;;;;;;21.48;45.73;100288.25;4410639;32;20163;-73
2021/06/16 06:57:40;;;;;;;5.57;2.60;;;;;;;21.17;46.22;100283.63;4410593;32;20074;-75
2021/06/16 07:00:07;;;;;;;9.40;2.30;;;;;;;21.27;45.92;100284.13;4407295;32;20104;-72
2021/06/16 07:02:33;;;;;;;12.85;2.58;;;;;;;21.43;45.70;100283.31;4408309;32;20141;-74
2021/06/16 07:04:59;;;;;;;8.57;2.20;;;;;;;21.31;45.28;100285.44;4402362;32;20337;-73
2021/06/16 07:07:24;;;;;;;8.93;3.00;;;;;;;21.32;45.27;100286.97;4409907;32;21205;-73
2021/06/16 07:09:51;;;;;;;6.53;2.40;;;;;;;21.38;45.53;100281.25;4406342;32;20484;-74
2021/06/16 07:12:17;;;;;;;11.60;3.22;;;;;;;21.33;45.36;100279.19;4406566;32;20425;-73
2021/06/16 07:14:44;;;;;;;10.00;2.87;;;;;;;21.41;45.30;100280.19;4407197;32;20437;-73
2021/06/16 07:17:09;;;;;;;8.00;2.87;;;;;;;21.63;45.04;100280.91;4407526;32;20373;-76
2021/06/16 07:19:36;;;;;;;13.02;3.03;;;;;;;21.44;44.94;100273.41;4406979;32;20116;-73
2021/06/16 07:22:02;;;;;;;8.10;2.53;;;;;;;21.38;45.25;100266.94;4407270;32;20042;-75
2021/06/16 07:24:27;;;;;;;11.65;2.78;;;;;;;21.41;45.31;100277.31;4404749;32;20414;-71
2021/06/16 07:26:53;;;;;;;11.50;2.72;;;;;;;21.45;45.41;100275.00;4404865;32;20097;-74
2021/06/16 07:29:19;;;;;;;11.25;3.33;;;;;;;21.49;45.17;100269.78;4404124;32;20582;-74
2021/06/16 07:31:45;;;;;;;8.45;2.80;;;;;;;21.57;45.32;100277.28;4408114;32;20135;-72
2021/06/16 07:34:11;;;;;;;10.25;2.70;;;;;;;21.64;45.27;100275.97;4404169;32;20501;-77
2021/06/16 07:36:37;;;;;;;11.57;2.78;;;;;;;21.71;45.14;100269.69;4407698;32;20135;-75
2021/06/16 07:39:04;;;;;;;8.35;3.05;;;;;;;21.88;45.08;100258.97;4405489;32;20112;-75
2021/06/16 07:41:31;;;;;;;6.53;2.70;;;;;;;22.01;45.06;100258.38;4405683;32;21132;-76
2021/06/16 07:43:57;;;;;;;11.30;3.03;;;;;;;22.31;44.52;100264.97;4406313;32;20053;-76
2021/06/16 07:46:24;;;;;;;10.02;2.87;;;;;;;22.21;44.80;100258.78;4406750;32;20045;-72
2021/06/16 07:48:50;;;;;;;9.23;3.37;;;;;;;22.47;44.51;100246.87;4402930;32;20140;-74
2021/06/16 07:51:17;;;;;;;9.63;2.97;;;;;;;22.52;44.34;100261.19;4408507;32;20093;-74
2021/06/16 07:53:44;;;;;;;10.13;3.60;;;;;;;22.59;44.00;100249.16;4406733;32;20415;-74
2021/06/16 07:56:10;;;;;;;10.35;2.87;;;;;;;22.66;44.16;100250.66;4406097;32;20074;-74
2021/06/16 07:58:36;;;;;;;11.45;3.67;;;;;;;22.73;44.22;100244.37;4406297;32;20053;-73
2021/06/16 08:01:03;;;;;;;11.63;3.20;;;;;;;22.97;43.86;100244.37;4407103;32;20078;-75
2021/06/16 08:03:28;;;;;;;12.18;3.62;;;;;;;22.95;43.97;100236.31;4404538;32;20057;-74
2021/06/16 08:05:55;;;;;;;13.05;3.42;;;;;;;22.91;44.16;100232.97;4404980;32;20134;-75
2021/06/16 08:08:21;;;;;;;12.05;3.55;;;;;;;23.13;43.91;100227.00;4401941;32;20104;-76
2021/06/16 08:10:47;;;;;;;8.25;2.97;;;;;;;23.12;43.77;100236.16;4407171;32;21297;-73
2021/06/16 08:13:13;;;;;;;11.45;3.50;;;;;;;23.10;43.79;100233.81;4405663;32;20595;-74
2021/06/16 08:15:39;;;;;;;6.70;3.03;;;;;;;23.05;44.19;100225.28;4409445;32;20053;-75
2021/06/16 08:18:06;;;;;;;14.98;3.55;;;;;;;23.07;44.06;100220.53;4405070;32;20038;-73
2021/06/16 08:20:32;;;;;;;14.98;3.42;;;;;;;23.28;43.56;100229.47;4410523;32;20150;-74
2021/06/16 08:22:58;;;;;;;15.15;3.45;;;;;;;23.21;43.76;100227.97;4408835;32;20073;-73
2021/06/16 08:25:26;;;;;;;9.48;3.12;;;;;;;23.31;43.11;100225.53;4407907;32;20204;-73
2021/06/16 08:27:52;;;;;;;15.20;4.10;;;;;;;23.48;42.89;100220.37;4405937;32;20120;-73
2021/06/16 08:30:18;;;;;;;9.93;3.17;;;;;;;23.61;42.28;100220.47;4405403;32;20092;-75
2021/06/16 08:32:44;;;;;;;10.88;2.85;;;;;;;23.78;41.67;100232.53;4409208;32;20053;-76
2021/06/16 08:35:11;;;;;;;9.70;2.87;;;;;;;23.75;41.19;100221.34;4409273;32;20106;-71
2021/06/16 08:37:37;;;;;;;9.48;3.00;;;;;;;23.69;40.36;100221.44;4406653;32;20060;-74
2021/06/16 08:40:05;;;;;;;12.10;2.92;;;;;;;23.74;40.67;100225.56;4405862;32;20050;-73
2021/06/16 08:42:32;;;;;;;11.88;3.15;;;;;;;23.87;40.43;100220.66;4408323;32;20081;-71
2021/06/16 08:44:59;;;;;;;15.38;2.70;;;;;;;24.13;40.42;100220.84;4410659;32;20105;-75
2021/06/16 08:47:26;;;;;;;9.73;2.87;;;;;;;24.18;39.57;100220.00;4406045;32;20093;-74
2021/06/16 08:49:52;;;;;;;10.55;3.37;;;;;;;23.96;38.62;100228.91;4411706;32;20068;-74
2021/06/16 08:52:18;;;;;;;11.50;2.85;;;;;;;23.77;38.82;100219.47;4407626;32;20166;-74
2021/06/16 08:54:44;;;;;;;7.80;3.00;;;;;;;23.91;38.57;100221.13;4407868;32;20081;-73
2021/06/16 08:57:10;;;;;;;11.05;3.08;;;;;;;24.00;37.88;100214.25;4408620;32;20096;-73
2021/06/16 08:59:36;;;;;;;9.15;2.55;;;;;;;24.35;37.85;100206.13;4409570;32;20054;-74
2021/06/16 09:02:02;;;;;;;5.95;2.40;;;;;;;24.74;37.01;100211.25;4407965;32;20080;-73
2021/06/16 09:04:48;;;;;;;8.40;2.90;;;;;;;25.00;35.85;100217.84;4406207;32;20100;-73
2021/06/16 09:12:46;;;;;;;8.52;2.47;;;;;;;26.11;33.91;100207.72;4431512;31;673589;-74
2021/06/16 09:15:15;;;;;;;15.98;2.97;;;;;;;26.11;33.91;100207.72;4445507;32;20507;-72
2021/06/16 09:17:41;;;;;;;9.45;2.55;;;;;;;26.05;34.40;100206.31;4443469;32;20080;-75
2021/06/16 09:20:08;;;;;;;17.02;2.95;;;;;;;26.18;33.58;100204.16;4444732;32;20099;-73
2021/06/16 09:22:37;;;;;;;7.65;2.50;;;;;;;26.35;33.80;100204.53;4444010;32;20048;-73
2021/06/16 09:25:08;;;;;;;7.78;2.50;;;;;;;26.78;33.37;100193.25;4447852;32;20547;-75
2021/06/16 09:27:51;;;;;;;6.82;2.42;;;;;;;27.21;32.85;100207.84;4444049;32;20132;-73
2021/06/16 09:32:58;;;;;;;10.30;2.92;;;;;;;27.52;31.63;100205.94;4419055;31;709863;-76
2021/06/16 09:35:27;;;;;;;12.52;3.25;;;;;;;27.56;31.63;100199.78;4431227;32;20118;-73
2021/06/16 09:37:55;;;;;;;11.27;2.85;;;;;;;27.82;30.70;100187.97;4432798;32;20101;-73
2021/06/16 09:40:31;;;;;;;7.28;2.10;;;;;;;28.10;30.81;100188.66;4435480;32;20061;-73
2021/06/16 09:43:07;;;;;;;7.93;2.75;;;;;;;28.33;29.65;100188.75;4434295;32;20469;-74
2021/06/16 09:45:34;;;;;;;11.60;2.65;;;;;;;28.35;30.15;100175.22;4435617;32;20422;-72
2021/06/16 09:56:51;;;;;;;10.00;2.58;;;;;;;29.49;28.82;100168.09;4421507;31;681520;-71
2021/06/16 09:59:35;;;;;;;14.87;3.47;;;;;;;29.49;28.82;100168.09;4430347;32;20084;-73
2021/06/16 10:02:01;;;;;;;17.87;3.10;;;;;;;29.32;28.87;100172.97;4427776;32;20305;-74
2021/06/16 10:04:39;;;;;;;8.25;2.67;;;;;;;29.41;28.82;100175.25;4431001;32;20116;-73
2021/06/16 10:10:11;;;;;;;14.55;2.60;;;;;;;29.99;27.49;100171.97;4411996;31;679232;-75
2021/06/16 10:12:40;;;;;;;11.48;2.62;;;;;;;29.99;27.49;100171.97;4435828;32;20041;-75
2021/06/16 10:15:16;;;;;;;16.23;2.83;;;;;;;29.91;27.30;100159.66;4434307;32;20425;-73
2021/06/16 10:17:43;;;;;;;9.05;2.72;;;;;;;30.39;26.48;100158.22;4436755;32;20108;-75
2021/06/16 10:20:12;;;;;;;10.57;3.10;;;;;;;30.40;27.17;100148.91;4435320;32;20110;-71
2021/06/16 10:22:38;;;;;;;20.58;3.35;;;;;;;30.53;27.13;100171.84;4437021;32;20103;-71
2021/06/16 10:25:06;;;;;;;15.90;2.83;;;;;;;30.36;26.78;100159.41;4437423;32;20085;-73
2021/06/16 10:27:37;;;;;;;12.95;2.92;;;;;;;30.13;25.88;100162.41;4438725;32;20461;-72
2021/06/16 10:30:12;;;;;;;13.85;2.90;;;;;;;30.52;25.59;100164.50;4435331;32;20681;-72
2021/06/16 10:32:41;;;;;;;12.05;2.42;;;;;;;30.37;25.61;100160.97;4437834;32;20793;-71
2021/06/16 10:35:09;;;;;;;12.75;2.92;;;;;;;30.35;25.83;100170.25;4439173;32;20053;-73
2021/06/16 10:37:41;;;;;;;11.95;2.87;;;;;;;30.03;25.42;100167.31;4436309;32;20046;-71
2021/06/16 10:40:28;;;;;;;10.07;2.78;;;;;;;30.36;25.59;100166.00;4438709;32;20394;-73
2021/06/16 10:45:41;;;;;;;15.00;2.03;;;;;;;31.34;22.17;100179.75;4433811;31;661721;-74
2021/06/16 10:48:09;;;;;;;6.22;1.67;;;;;;;31.36;22.16;100182.03;4447074;32;20068;-73
2021/06/16 10:53:28;;;;;;;8.85;1.98;;;;;;;31.34;22.22;100173.91;4421246;31;735532;-74
2021/06/16 10:58:31;;;;;;;8.27;1.70;;;;;;;31.83;22.26;100158.44;4425113;31;675215;-71
2021/06/16 11:01:17;;;;;;;7.30;2.20;;;;;;;31.83;22.26;100158.44;4429410;32;20041;-73
2021/06/16 11:14:46;;;;;;;6.40;1.37;;;;;;;31.91;21.20;100156.94;4423280;31;693083;-73
2021/06/16 11:41:25;;;;;;;3.00;1.50;;;;;;;34.42;18.48;100121.28;4411706;31;673382;-73
2021/06/16 11:46:31;;;;;;;5.20;1.30;;;;;;;33.50;18.72;100094.69;4433127;31;669246;-71
2021/06/16 11:54:26;;;;;;;2.42;0.90;;;;;;;33.87;16.51;100104.81;4434764;31;679246;-75
2021/06/16 11:57:09;;;;;;;2.87;1.20;;;;;;;33.87;16.51;100104.81;4445654;32;20448;-75
2021/06/16 12:07:33;;;;;;;5.47;1.40;;;;;;;34.46;17.64;100103.28;4446501;31;671802;-74
2021/06/16 12:10:03;;;;;;;4.65;1.50;;;;;;;34.46;17.64;100103.28;4447171;32;20910;-74
2021/06/16 12:13:00;;;;;;;3.85;1.25;;;;;;;33.78;17.19;100096.78;4457943;32;20457;-75
2021/06/16 12:15:30;;;;;;;5.45;1.27;;;;;;;33.81;17.41;100086.06;4460604;32;20078;-76
2021/06/16 12:20:38;;;;;;;2.83;1.15;;;;;;;33.19;17.24;100095.91;4421308;31;673352;-75
2021/06/16 12:23:27;;;;;;;5.50;1.77;;;;;;;33.29;16.41;100085.78;4439185;32;20139;-72
2021/06/16 12:26:11;;;;;;;2.70;1.20;;;;;;;32.99;17.71;100097.25;4439253;32;20076;-72
2021/06/16 12:28:41;;;;;;;4.80;1.55;;;;;;;33.14;17.92;100086.06;4441871;32;20093;-74
2021/06/16 12:31:12;;;;;;;5.72;1.50;;;;;;;33.12;18.66;100093.88;4446193;32;20087;-75
2021/06/16 12:33:43;;;;;;;6.18;1.73;;;;;;;32.83;19.22;100088.00;4444826;32;20160;-76
2021/06/16 12:36:21;;;;;;;7.47;1.60;;;;;;;32.93;18.78;100090.94;4440879;32;20106;-75
2021/06/16 12:38:51;;;;;;;5.00;1.20;;;;;;;32.54;19.08;100090.81;4442032;32;20102;-78
2021/06/16 12:41:35;;;;;;;3.60;1.55;;;;;;;32.25;19.24;100077.50;4440276;32;20091;-78
2021/06/16 12:52:36;;;;;;;5.03;1.50;;;;;;;33.26;19.19;100075.34;4430983;31;699127;-76
2021/06/16 12:55:12;;;;;;;5.50;1.60;;;;;;;33.26;19.19;100075.34;4445447;32;20077;-74
2021/06/16 12:57:44;;;;;;;9.95;2.92;;;;;;;33.98;18.76;100074.97;4447439;32;20072;-71
2021/06/16 13:00:14;;;;;;;4.00;1.40;;;;;;;34.90;18.31;100075.06;4445566;32;20049;-73
2021/06/16 13:02:40;;;;;;;6.70;1.67;;;;;;;35.05;18.06;100068.03;4431679;32;20087;-76
2021/06/16 13:05:07;;;;;;;3.50;1.30;;;;;;;35.71;17.69;100070.38;4430956;32;20061;-75